Time;durP1;ratioP1;P1;durP2;ratioP2;P2;SDS_P1;SDS_P2;PMS_P1;PMS_P2;Temp;Humidity;BMP_temperature;BMP_pressure;BME280_temperature;BME280_humidity;BME280_pressure;Samples;Min_cycle;Max_cycle;Signal;HPM_P1;HPM_P2
2022/07/13 00:01:26;;;;;;;6.32;2.78;;;;;;;;;;4138355;34;20131;-67
2022/07/13 00:34:13;;;;;;;5.80;2.53;;;;;;;;;;4267456;28;20101;-66
2022/07/13 00:36:39;;;;;;;5.95;3.00;;;;;;;;;;4151027;34;20231;-65
2022/07/13 00:39:06;;;;;;;1.40;1.35;;;;;;;;;;4151115;34;20135;-65
2022/07/13 00:41:32;;;;;;;5.25;3.05;;;;;;;;;;4150826;34;20500;-61
2022/07/13 00:44:08;;;;;;;2.85;2.58;;;;;;;;;;4151052;34;20198;-61
2022/07/13 00:46:38;;;;;;;5.80;2.78;;;;;;;;;;4150815;34;20111;-60
2022/07/13 00:49:04;;;;;;;4.62;2.60;;;;;;;;;;4150733;34;20215;-60
2022/07/13 00:51:30;;;;;;;5.15;3.00;;;;;;;;;;4150968;34;20115;-61
2022/07/13 00:53:57;;;;;;;6.47;2.15;;;;;;;;;;4150882;34;20142;-60
2022/07/13 00:56:25;;;;;;;3.90;2.50;;;;;;;;;;4150929;34;20538;-66
2022/07/13 00:58:51;;;;;;;3.10;2.70;;;;;;;;;;4150489;34;20133;-66
2022/07/13 01:01:17;;;;;;;5.18;2.58;;;;;;;;;;4150649;34;20114;-66
2022/07/13 01:03:43;;;;;;;1.77;1.67;;;;;;;;;;4150962;34;20134;-66
2022/07/13 01:06:10;;;;;;;1.80;1.70;;;;;;;;;;4150438;34;20119;-66
2022/07/13 01:08:36;;;;;;;3.62;2.75;;;;;;;;;;4150655;34;20220;-66
2022/07/13 01:11:02;;;;;;;2.15;1.92;;;;;;;;;;4150501;34;20612;-66
2022/07/13 01:13:29;;;;;;;5.05;2.58;;;;;;;;;;4135790;34;20113;-66
2022/07/13 01:15:55;;;;;;;5.32;2.20;;;;;;;;;;4149544;34;20154;-67
2022/07/13 01:18:21;;;;;;;3.37;2.47;;;;;;;;;;4150612;34;20099;-66
2022/07/13 01:20:47;;;;;;;1.45;1.35;;;;;;;;;;4136051;34;20095;-66
2022/07/13 01:23:14;;;;;;;4.50;1.87;;;;;;;;;;4135892;34;20091;-66
2022/07/13 01:25:41;;;;;;;2.60;1.77;;;;;;;;;;4135649;34;20108;-66
2022/07/13 01:28:07;;;;;;;8.63;2.60;;;;;;;;;;4150668;34;20115;-65
2022/07/13 01:30:33;;;;;;;6.30;3.55;;;;;;;;;;4150747;34;20087;-66
2022/07/13 01:32:59;;;;;;;6.72;3.20;;;;;;;;;;4150652;34;20519;-66
2022/07/13 01:35:26;;;;;;;6.10;3.05;;;;;;;;;;4150374;34;20119;-66
2022/07/13 01:37:53;;;;;;;4.12;3.35;;;;;;;;;;4150293;34;20131;-65
2022/07/13 01:40:19;;;;;;;5.62;3.12;;;;;;;;;;4135673;34;20193;-66
2022/07/13 01:42:50;;;;;;;5.35;3.00;;;;;;;;;;4148250;34;20115;-65
2022/07/13 01:45:17;;;;;;;7.80;3.15;;;;;;;;;;4135462;34;20131;-58
2022/07/13 01:47:45;;;;;;;4.72;3.28;;;;;;;;;;4147975;34;20131;-60
2022/07/13 01:50:13;;;;;;;3.30;2.90;;;;;;;;;;4150189;34;20523;-60
2022/07/13 01:52:39;;;;;;;4.62;2.80;;;;;;;;;;4150139;34;20538;-60
2022/07/13 01:55:08;;;;;;;3.28;2.78;;;;;;;;;;4137373;34;20214;-60
2022/07/13 01:57:34;;;;;;;4.90;3.00;;;;;;;;;;4135234;34;20204;-59
2022/07/13 02:00:00;;;;;;;4.70;2.75;;;;;;;;;;4149329;34;20111;-59
2022/07/13 02:02:27;;;;;;;5.53;3.03;;;;;;;;;;4135309;34;20190;-59
2022/07/13 02:04:54;;;;;;;5.22;3.10;;;;;;;;;;4148661;34;20134;-59
2022/07/13 02:07:21;;;;;;;6.53;3.12;;;;;;;;;;4150096;34;20096;-60
2022/07/13 02:09:48;;;;;;;3.65;2.78;;;;;;;;;;4150073;34;20185;-59
2022/07/13 02:12:15;;;;;;;6.10;2.92;;;;;;;;;;4150162;34;20106;-60
2022/07/13 02:14:41;;;;;;;4.90;2.95;;;;;;;;;;4149904;34;20563;-59
2022/07/13 02:17:07;;;;;;;8.77;3.20;;;;;;;;;;4149978;34;20106;-59
2022/07/13 02:19:33;;;;;;;4.75;2.80;;;;;;;;;;4150001;34;20205;-59
2022/07/13 02:21:59;;;;;;;4.00;3.17;;;;;;;;;;4149963;34;20138;-59
2022/07/13 02:24:25;;;;;;;3.72;2.90;;;;;;;;;;4149894;34;20135;-59
2022/07/13 02:26:51;;;;;;;4.20;2.87;;;;;;;;;;4149928;34;20560;-59
2022/07/13 02:29:17;;;;;;;4.03;3.03;;;;;;;;;;4150106;34;20126;-59
2022/07/13 02:31:43;;;;;;;5.72;3.03;;;;;;;;;;4149820;34;20127;-59
2022/07/13 02:34:09;;;;;;;4.00;2.72;;;;;;;;;;4149741;34;20219;-59
2022/07/13 02:36:35;;;;;;;3.37;2.70;;;;;;;;;;4149694;34;20121;-60
2022/07/13 02:39:01;;;;;;;2.97;2.00;;;;;;;;;;4149697;34;20123;-60
2022/07/13 02:41:27;;;;;;;3.20;2.40;;;;;;;;;;4150062;34;20126;-60
2022/07/13 02:43:53;;;;;;;5.45;2.70;;;;;;;;;;4149820;34;20210;-60
2022/07/13 02:46:19;;;;;;;3.35;2.72;;;;;;;;;;4149714;34;20106;-60
2022/07/13 02:48:44;;;;;;;6.18;3.60;;;;;;;;;;4149093;34;20106;-60
2022/07/13 02:51:10;;;;;;;4.32;2.90;;;;;;;;;;4149690;34;20094;-60
2022/07/13 02:53:36;;;;;;;7.00;2.78;;;;;;;;;;4149514;34;20211;-60
2022/07/13 02:56:02;;;;;;;3.75;2.92;;;;;;;;;;4149841;34;20130;-60
2022/07/13 02:58:29;;;;;;;6.28;2.87;;;;;;;;;;4134827;34;20197;-59
2022/07/13 03:00:55;;;;;;;5.05;2.97;;;;;;;;;;4148372;34;20193;-60
2022/07/13 03:03:21;;;;;;;10.75;3.67;;;;;;;;;;4149472;34;20223;-60
2022/07/13 03:05:47;;;;;;;2.95;2.47;;;;;;;;;;4149493;34;20149;-59
2022/07/13 03:08:12;;;;;;;3.25;2.40;;;;;;;;;;4149563;34;20137;-59
2022/07/13 03:10:38;;;;;;;5.18;2.47;;;;;;;;;;4149685;34;20510;-59
2022/07/13 03:13:04;;;;;;;7.37;2.87;;;;;;;;;;4149273;34;20181;-60
2022/07/13 03:15:30;;;;;;;2.92;2.50;;;;;;;;;;4149383;34;20567;-60
2022/07/13 03:17:56;;;;;;;4.72;3.05;;;;;;;;;;4149299;34;20114;-60
2022/07/13 03:20:22;;;;;;;9.20;3.33;;;;;;;;;;4149636;34;20110;-60
2022/07/13 03:22:49;;;;;;;8.43;2.67;;;;;;;;;;4135301;34;20108;-59
2022/07/13 03:25:15;;;;;;;6.05;2.70;;;;;;;;;;4149335;34;20099;-60
2022/07/13 03:27:41;;;;;;;6.93;3.83;;;;;;;;;;4134679;34;20476;-59
2022/07/13 03:30:07;;;;;;;7.87;3.42;;;;;;;;;;4149137;34;20479;-60
2022/07/13 03:32:34;;;;;;;8.40;3.10;;;;;;;;;;4149525;34;20122;-63
2022/07/13 03:35:00;;;;;;;4.45;2.90;;;;;;;;;;4135938;34;20112;-60
2022/07/13 03:37:26;;;;;;;4.82;3.00;;;;;;;;;;4149583;34;20236;-61
2022/07/13 03:39:52;;;;;;;3.87;3.03;;;;;;;;;;4149415;34;20118;-61
2022/07/13 03:42:18;;;;;;;5.10;2.33;;;;;;;;;;4149337;34;20206;-60
2022/07/13 03:44:44;;;;;;;13.98;2.55;;;;;;;;;;4149103;34;20142;-63
2022/07/13 03:47:10;;;;;;;8.45;2.60;;;;;;;;;;4134141;34;20115;-60
2022/07/13 03:49:35;;;;;;;3.72;2.55;;;;;;;;;;4146209;34;20114;-60
2022/07/13 03:52:02;;;;;;;5.82;2.62;;;;;;;;;;4149155;34;20587;-61
2022/07/13 03:54:28;;;;;;;4.25;2.62;;;;;;;;;;4134166;34;20139;-60
2022/07/13 03:56:53;;;;;;;2.12;1.27;;;;;;;;;;4147669;34;20125;-61
2022/07/13 03:59:19;;;;;;;5.22;2.50;;;;;;;;;;4149447;34;20138;-61
2022/07/13 04:01:46;;;;;;;4.82;2.40;;;;;;;;;;4151329;34;20106;-61
2022/07/13 04:04:12;;;;;;;1.45;1.35;;;;;;;;;;4136152;34;20107;-61
2022/07/13 04:06:37;;;;;;;2.50;1.60;;;;;;;;;;4136293;34;20103;-60
2022/07/13 04:09:04;;;;;;;1.75;1.60;;;;;;;;;;4150838;34;20191;-61
2022/07/13 04:11:36;;;;;;;6.93;3.10;;;;;;;;;;4151084;34;20110;-60
2022/07/13 04:14:02;;;;;;;7.47;3.28;;;;;;;;;;4137969;34;20681;-61
2022/07/13 04:16:28;;;;;;;4.40;1.98;;;;;;;;;;4151292;34;20118;-63
2022/07/13 04:18:54;;;;;;;6.70;2.55;;;;;;;;;;4115253;34;20118;-62
2022/07/13 04:21:20;;;;;;;1.00;1.00;;;;;;;;;;4150988;34;20534;-62
2022/07/13 04:23:46;;;;;;;4.53;2.08;;;;;;;;;;4151262;34;20119;-62
2022/07/13 04:26:12;;;;;;;1.87;1.73;;;;;;;;;;4151032;34;20130;-62
2022/07/13 04:28:38;;;;;;;3.53;2.10;;;;;;;;;;4136565;34;20118;-62
2022/07/13 04:31:05;;;;;;;3.20;2.45;;;;;;;;;;4138281;34;20139;-60
2022/07/13 04:33:32;;;;;;;2.35;1.95;;;;;;;;;;4114841;34;20123;-61
2022/07/13 04:35:58;;;;;;;2.62;2.12;;;;;;;;;;4137597;34;20115;-63
2022/07/13 04:38:24;;;;;;;1.75;1.60;;;;;;;;;;4151061;34;20613;-63
2022/07/13 04:40:50;;;;;;;4.57;2.17;;;;;;;;;;4137006;34;20231;-63
2022/07/13 04:43:17;;;;;;;1.20;1.20;;;;;;;;;;4150798;34;20109;-63
2022/07/13 04:45:44;;;;;;;3.00;2.42;;;;;;;;;;4114113;34;20489;-63
2022/07/13 04:48:10;;;;;;;1.55;1.45;;;;;;;;;;4133296;34;20103;-63
2022/07/13 04:50:36;;;;;;;3.50;1.52;;;;;;;;;;4114600;34;20123;-65
2022/07/13 04:53:02;;;;;;;1.67;1.58;;;;;;;;;;4137128;34;20475;-60
2022/07/13 04:55:28;;;;;;;2.95;2.53;;;;;;;;;;4131583;34;20460;-61
2022/07/13 04:57:56;;;;;;;4.18;2.65;;;;;;;;;;4137120;34;20220;-60
2022/07/13 05:00:22;;;;;;;3.50;2.35;;;;;;;;;;4125163;34;20138;-62
2022/07/13 05:02:48;;;;;;;5.28;2.30;;;;;;;;;;4137091;34;20235;-61
2022/07/13 05:05:14;;;;;;;1.65;1.55;;;;;;;;;;4131747;34;20172;-61
2022/07/13 05:07:40;;;;;;;1.52;1.42;;;;;;;;;;4137396;34;20391;-61
2022/07/13 05:10:07;;;;;;;1.00;1.00;;;;;;;;;;4131656;34;20120;-61
2022/07/13 05:12:39;;;;;;;5.22;2.95;;;;;;;;;;4124143;34;20123;-63
2022/07/13 05:15:07;;;;;;;4.82;2.50;;;;;;;;;;4131658;34;20123;-62
2022/07/13 05:17:33;;;;;;;4.18;3.03;;;;;;;;;;4124602;34;20191;-62
2022/07/13 05:19:59;;;;;;;3.25;2.47;;;;;;;;;;4131703;34;20531;-60
2022/07/13 05:22:25;;;;;;;5.57;2.97;;;;;;;;;;4136896;34;20115;-62
2022/07/13 05:24:51;;;;;;;11.18;2.80;;;;;;;;;;4131516;34;20135;-63
2022/07/13 05:27:17;;;;;;;3.40;2.75;;;;;;;;;;4124511;34;20181;-63
2022/07/13 05:29:43;;;;;;;5.45;2.67;;;;;;;;;;4131583;34;20191;-63
2022/07/13 05:32:09;;;;;;;6.93;3.00;;;;;;;;;;4137052;34;20178;-63
2022/07/13 05:34:35;;;;;;;6.85;2.65;;;;;;;;;;4124639;34;20102;-63
2022/07/13 05:37:01;;;;;;;3.90;3.08;;;;;;;;;;4136908;34;20123;-62
2022/07/13 05:39:27;;;;;;;4.93;2.50;;;;;;;;;;4132871;34;20626;-63
2022/07/13 05:41:53;;;;;;;3.20;2.50;;;;;;;;;;4135533;34;20512;-63
2022/07/13 05:44:19;;;;;;;7.40;3.05;;;;;;;;;;4113378;34;20228;-63
2022/07/13 05:46:45;;;;;;;1.27;1.23;;;;;;;;;;4136711;34;20119;-63
2022/07/13 05:49:11;;;;;;;6.68;2.90;;;;;;;;;;4133963;34;20211;-62
2022/07/13 05:51:37;;;;;;;4.78;3.03;;;;;;;;;;4133890;34;20137;-62
2022/07/13 05:54:04;;;;;;;6.18;2.53;;;;;;;;;;4134585;34;20580;-63
2022/07/13 05:56:30;;;;;;;6.50;2.85;;;;;;;;;;4133250;34;20203;-61
2022/07/13 05:58:56;;;;;;;5.22;2.72;;;;;;;;;;4135299;34;20150;-62
2022/07/13 06:01:22;;;;;;;3.90;3.00;;;;;;;;;;4132281;34;20127;-61
2022/07/13 06:03:48;;;;;;;9.43;2.78;;;;;;;;;;4136009;34;20210;-62
2022/07/13 06:06:14;;;;;;;4.80;3.37;;;;;;;;;;4131727;34;20543;-62
2022/07/13 06:08:40;;;;;;;4.93;2.90;;;;;;;;;;4136632;34;20200;-60
2022/07/13 06:11:06;;;;;;;5.28;2.60;;;;;;;;;;4130910;34;20104;-62
2022/07/13 06:13:32;;;;;;;5.07;3.20;;;;;;;;;;4136709;34;20526;-63
2022/07/13 06:15:59;;;;;;;6.07;2.78;;;;;;;;;;4131087;34;20203;-62
2022/07/13 06:18:26;;;;;;;3.95;3.08;;;;;;;;;;4136511;34;20123;-63
2022/07/13 06:20:52;;;;;;;8.45;3.35;;;;;;;;;;4130825;34;20544;-63
2022/07/13 06:23:20;;;;;;;4.50;2.60;;;;;;;;;;4122905;34;20528;-63
2022/07/13 06:25:46;;;;;;;3.92;3.20;;;;;;;;;;4131071;34;20528;-61
2022/07/13 06:28:13;;;;;;;3.85;2.05;;;;;;;;;;4136339;34;20135;-63
2022/07/13 06:30:39;;;;;;;4.45;2.92;;;;;;;;;;4130766;34;20131;-62
2022/07/13 06:33:05;;;;;;;7.07;3.25;;;;;;;;;;4136182;34;20123;-64
2022/07/13 06:35:31;;;;;;;7.25;3.42;;;;;;;;;;4130785;34;20136;-64
2022/07/13 06:37:58;;;;;;;5.60;3.08;;;;;;;;;;4136209;34;20185;-64
2022/07/13 06:40:24;;;;;;;7.72;3.10;;;;;;;;;;4129951;34;20111;-64
2022/07/13 06:42:50;;;;;;;4.12;3.08;;;;;;;;;;4134223;34;20110;-64
2022/07/13 06:45:17;;;;;;;5.18;2.85;;;;;;;;;;4110517;34;20107;-64
2022/07/13 06:47:43;;;;;;;4.82;2.62;;;;;;;;;;4134962;34;20094;-64
2022/07/13 06:50:09;;;;;;;5.62;3.12;;;;;;;;;;4130709;34;20119;-64
2022/07/13 06:52:37;;;;;;;7.18;2.72;;;;;;;;;;4136352;34;20193;-63
2022/07/13 06:55:04;;;;;;;4.85;2.92;;;;;;;;;;4123790;34;20100;-64
2022/07/13 06:57:30;;;;;;;10.35;3.42;;;;;;;;;;4136090;34;20197;-64
2022/07/13 06:59:56;;;;;;;6.72;2.90;;;;;;;;;;4130733;34;20548;-64
2022/07/13 07:02:22;;;;;;;10.35;3.00;;;;;;;;;;4136241;34;20218;-63
2022/07/13 07:04:49;;;;;;;11.90;3.40;;;;;;;;;;4130624;34;20214;-64
2022/07/13 07:07:15;;;;;;;5.95;3.33;;;;;;;;;;4136080;34;20113;-64
2022/07/13 07:09:41;;;;;;;7.00;3.10;;;;;;;;;;4130856;34;20115;-62
2022/07/13 07:12:07;;;;;;;7.87;3.08;;;;;;;;;;4130426;34;20119;-63
2022/07/13 07:14:33;;;;;;;7.45;3.15;;;;;;;;;;4123433;34;20124;-63
2022/07/13 07:17:02;;;;;;;5.95;3.20;;;;;;;;;;4136260;34;20119;-63
2022/07/13 07:19:28;;;;;;;7.55;3.20;;;;;;;;;;4131704;34;20100;-63
2022/07/13 07:21:54;;;;;;;8.65;3.00;;;;;;;;;;4134762;34;20437;-64
2022/07/13 07:24:24;;;;;;;5.82;3.55;;;;;;;;;;4123385;34;20092;-63
2022/07/13 07:26:51;;;;;;;6.22;3.30;;;;;;;;;;4135345;34;20120;-63
2022/07/13 07:29:17;;;;;;;7.97;3.75;;;;;;;;;;4112255;34;20429;-64
2022/07/13 07:31:43;;;;;;;10.50;3.30;;;;;;;;;;4123304;34;20497;-63
2022/07/13 07:34:09;;;;;;;6.50;4.05;;;;;;;;;;4133540;34;20205;-60
2022/07/13 07:36:35;;;;;;;5.03;2.90;;;;;;;;;;4134723;34;20219;-63
2022/07/13 07:39:01;;;;;;;8.00;3.05;;;;;;;;;;4136040;34;20619;-61
2022/07/13 07:41:27;;;;;;;7.47;3.78;;;;;;;;;;4134162;34;20480;-63
2022/07/13 07:43:53;;;;;;;8.20;3.15;;;;;;;;;;4136880;34;20126;-62
2022/07/13 07:46:19;;;;;;;3.45;2.90;;;;;;;;;;4133363;34;20147;-65
2022/07/13 07:48:45;;;;;;;7.65;3.50;;;;;;;;;;4125064;34;20102;-64
2022/07/13 07:51:11;;;;;;;8.38;3.22;;;;;;;;;;4132763;34;20139;-62
2022/07/13 07:53:38;;;;;;;7.87;2.87;;;;;;;;;;4137625;34;20211;-64
2022/07/13 07:56:04;;;;;;;4.05;3.20;;;;;;;;;;4132460;34;20126;-63
2022/07/13 07:58:30;;;;;;;5.62;3.33;;;;;;;;;;4137901;34;20134;-62
2022/07/13 08:00:56;;;;;;;6.22;4.10;;;;;;;;;;4132272;34;20127;-63
2022/07/13 08:03:22;;;;;;;6.60;4.12;;;;;;;;;;4137576;34;20113;-61
2022/07/13 08:05:51;;;;;;;9.45;4.30;;;;;;;;;;4132242;34;20578;-63
2022/07/13 08:08:18;;;;;;;7.00;3.55;;;;;;;;;;4124998;34;20115;-62
2022/07/13 08:10:45;;;;;;;6.97;3.92;;;;;;;;;;4132369;34;20106;-61
2022/07/13 08:13:11;;;;;;;8.85;3.83;;;;;;;;;;4124911;34;20669;-60
2022/07/13 08:15:37;;;;;;;14.18;3.72;;;;;;;;;;4132265;34;20112;-61
2022/07/13 08:18:03;;;;;;;7.90;3.40;;;;;;;;;;4137464;34;20119;-61
2022/07/13 08:20:29;;;;;;;7.60;3.40;;;;;;;;;;4132136;34;20107;-61
2022/07/13 08:22:55;;;;;;;7.28;3.58;;;;;;;;;;4137372;34;20323;-60
2022/07/13 08:25:21;;;;;;;8.57;3.17;;;;;;;;;;4132064;34;20107;-61
2022/07/13 08:27:47;;;;;;;6.85;3.50;;;;;;;;;;4137664;34;20104;-58
2022/07/13 08:30:13;;;;;;;9.80;4.43;;;;;;;;;;4113938;34;20099;-61
2022/07/13 08:32:39;;;;;;;7.60;3.62;;;;;;;;;;4137334;34;20203;-61
2022/07/13 08:40:40;;;;;;;15.52;4.85;;;;;;;;;;4132004;34;20115;-61
2022/07/13 08:43:07;;;;;;;17.62;4.53;;;;;;;;;;4137490;34;20508;-60
2022/07/13 08:45:33;;;;;;;11.15;4.15;;;;;;;;;;4131326;34;20532;-61
2022/07/13 08:48:00;;;;;;;7.18;4.05;;;;;;;;;;4124693;34;20186;-61
2022/07/13 08:50:27;;;;;;;12.63;4.10;;;;;;;;;;4124716;34;20100;-59
2022/07/13 08:52:54;;;;;;;8.32;3.15;;;;;;;;;;4113577;34;20536;-61
2022/07/13 08:55:20;;;;;;;5.45;3.75;;;;;;;;;;4131970;34;20127;-60
2022/07/13 08:57:46;;;;;;;5.57;3.65;;;;;;;;;;4124656;34;20107;-61
2022/07/13 09:00:12;;;;;;;6.72;3.78;;;;;;;;;;4131906;34;20127;-59
2022/07/13 09:02:39;;;;;;;6.15;3.78;;;;;;;;;;4124929;34;20116;-59
2022/07/13 09:05:06;;;;;;;7.70;3.30;;;;;;;;;;4131808;34;20621;-61
2022/07/13 09:07:33;;;;;;;9.25;3.78;;;;;;;;;;4124846;34;20108;-60
2022/07/13 09:10:01;;;;;;;6.22;4.45;;;;;;;;;;4131654;34;20130;-61
2022/07/13 09:12:28;;;;;;;10.18;4.60;;;;;;;;;;4137157;34;20119;-61
2022/07/13 09:14:58;;;;;;;7.90;5.15;;;;;;;;;;4124532;34;20605;-60
2022/07/13 09:17:33;;;;;;;12.75;4.95;;;;;;;;;;4113533;34;20118;-61
2022/07/13 09:20:02;;;;;;;;;;;;;;;;;;4125054;34;20131;-61
2022/07/13 09:22:28;;;;;;;8.05;4.60;;;;;;;;;;4124702;34;20107;-61
2022/07/13 09:24:54;;;;;;;8.75;5.15;;;;;;;;;;4124440;34;20142;-60
2022/07/13 09:27:21;;;;;;;11.32;6.05;;;;;;;;;;4124483;34;20119;-60
2022/07/13 09:29:47;;;;;;;11.27;4.93;;;;;;;;;;4131593;34;20177;-60
2022/07/13 09:32:13;;;;;;;15.88;6.32;;;;;;;;;;4124622;34;20104;-61
2022/07/13 09:34:47;;;;;;;10.98;5.95;;;;;;;;;;4124357;34;20544;-60
2022/07/13 09:37:21;;;;;;;13.15;3.70;;;;;;;;;;4124316;34;20133;-61
2022/07/13 09:40:07;;;;;;;6.50;4.12;;;;;;;;;;4124289;34;20194;-61
2022/07/13 09:42:38;;;;;;;7.50;4.95;;;;;;;;;;4124524;34;20102;-62
2022/07/13 09:47:55;;;;;;;7.43;4.22;;;;;;;;;;4136767;34;20131;-62
2022/07/13 09:50:23;;;;;;;9.40;5.87;;;;;;;;;;4113577;34;20548;-61
2022/07/13 09:52:50;;;;;;;5.60;3.70;;;;;;;;;;4136686;34;20130;-61
2022/07/13 09:55:22;;;;;;;6.40;3.30;;;;;;;;;;4137032;34;20107;-64
2022/07/13 09:57:56;;;;;;;6.20;4.70;;;;;;;;;;4136425;34;20223;-60
2022/07/13 10:00:23;;;;;;;7.65;3.55;;;;;;;;;;4137022;34;20211;-59
2022/07/13 10:02:50;;;;;;;2.78;0.95;;;;;;;;;;4136615;34;20111;-59
2022/07/13 10:05:18;;;;;;;8.90;3.53;;;;;;;;;;4136611;34;20614;-59
2022/07/13 10:07:46;;;;;;;8.65;3.62;;;;;;;;;;4136508;34;20118;-58
2022/07/13 10:10:14;;;;;;;4.03;2.70;;;;;;;;;;4136976;34;20130;-60
2022/07/13 10:12:41;;;;;;;7.03;2.90;;;;;;;;;;4124011;34;20542;-60
2022/07/13 10:15:07;;;;;;;7.00;3.15;;;;;;;;;;4124010;34;20236;-61
2022/07/13 10:17:34;;;;;;;5.93;3.65;;;;;;;;;;4136622;34;20135;-61
2022/07/13 10:20:21;;;;;;;3.67;3.10;;;;;;;;;;4124379;34;20110;-61
2022/07/13 10:22:48;;;;;;;10.82;3.47;;;;;;;;;;4124487;34;20524;-62
2022/07/13 10:25:16;;;;;;;10.48;3.25;;;;;;;;;;4136545;34;20096;-62
2022/07/13 10:27:43;;;;;;;8.40;3.12;;;;;;;;;;4136454;34;20099;-62
2022/07/13 10:30:16;;;;;;;7.97;3.15;;;;;;;;;;4136575;34;20183;-59
2022/07/13 10:32:42;;;;;;;5.60;2.60;;;;;;;;;;4123974;34;20118;-62
2022/07/13 10:35:12;;;;;;;9.52;2.78;;;;;;;;;;4123992;34;20582;-62
2022/07/13 10:37:56;;;;;;;6.35;2.50;;;;;;;;;;4123831;34;20540;-61
2022/07/13 10:40:23;;;;;;;7.70;2.65;;;;;;;;;;4136269;34;20212;-60
2022/07/13 10:43:04;;;;;;;4.53;2.75;;;;;;;;;;4136250;34;20610;-62
2022/07/13 10:45:33;;;;;;;2.90;2.60;;;;;;;;;;4136520;34;20104;-61
2022/07/13 10:48:00;;;;;;;4.87;2.92;;;;;;;;;;4136172;34;20142;-58
2022/07/13 10:50:36;;;;;;;10.88;3.70;;;;;;;;;;4123899;34;20116;-59
2022/07/13 10:53:03;;;;;;;11.60;3.70;;;;;;;;;;4136149;34;20190;-60
2022/07/13 10:55:36;;;;;;;5.55;2.47;;;;;;;;;;4136102;34;20099;-59
2022/07/13 10:58:30;;;;;;;5.50;3.05;;;;;;;;;;4123850;34;20120;-60
2022/07/13 11:00:56;;;;;;;8.07;3.62;;;;;;;;;;4136269;34;20103;-63
2022/07/13 11:03:31;;;;;;;9.07;4.12;;;;;;;;;;4135980;34;20492;-61
2022/07/13 11:06:13;;;;;;;6.90;3.33;;;;;;;;;;4136046;34;20134;-60
2022/07/13 11:08:40;;;;;;;1.23;1.23;;;;;;;;;;4136504;34;20118;-60
2022/07/13 11:11:19;;;;;;;8.60;3.17;;;;;;;;;;4120263;34;20100;-61
2022/07/13 11:13:46;;;;;;;12.00;3.67;;;;;;;;;;4127651;34;20127;-62
2022/07/13 11:16:13;;;;;;;7.45;2.90;;;;;;;;;;4138745;34;20444;-63
2022/07/13 11:18:41;;;;;;;7.20;3.15;;;;;;;;;;4148386;34;20197;-64
2022/07/13 11:21:14;;;;;;;6.37;3.75;;;;;;;;;;4133105;34;20104;-65
2022/07/13 11:26:31;;;;;;;5.57;3.35;;;;;;;;;;4153911;34;20106;-63
2022/07/13 11:29:06;;;;;;;7.62;3.35;;;;;;;;;;4163825;34;20118;-63
2022/07/13 11:31:32;;;;;;;;;;;;;;;;;;4147515;34;20115;-63
2022/07/13 11:33:58;;;;;;;8.93;3.97;;;;;;;;;;4145544;34;19989;-63
2022/07/13 11:36:24;;;;;;;10.02;4.80;;;;;;;;;;4137053;34;20114;-63
2022/07/13 11:38:51;;;;;;;8.50;4.32;;;;;;;;;;4146561;34;20204;-63
2022/07/13 11:41:21;;;;;;;5.87;3.62;;;;;;;;;;4154612;34;20094;-63
2022/07/13 11:43:47;;;;;;;11.95;4.43;;;;;;;;;;4153591;34;20150;-63
2022/07/13 11:46:14;;;;;;;7.50;4.45;;;;;;;;;;4153722;34;20088;-64
2022/07/13 11:48:40;;;;;;;11.07;3.83;;;;;;;;;;4153551;34;20428;-65
2022/07/13 11:51:08;;;;;;;5.55;3.53;;;;;;;;;;4141354;34;20091;-63
2022/07/13 11:53:38;;;;;;;8.85;3.70;;;;;;;;;;4131024;34;20122;-63
2022/07/13 11:56:05;;;;;;;12.75;3.92;;;;;;;;;;4153356;34;20145;-63
2022/07/13 11:58:33;;;;;;;4.25;3.53;;;;;;;;;;4153466;34;20114;-63
2022/07/13 12:01:00;;;;;;;9.27;3.67;;;;;;;;;;4153651;34;20098;-62
2022/07/13 12:03:31;;;;;;;12.57;5.75;;;;;;;;;;4140913;34;20107;-63
2022/07/13 12:05:59;;;;;;;18.50;4.65;;;;;;;;;;4141219;34;20211;-62
2022/07/13 12:08:25;;;;;;;11.27;4.75;;;;;;;;;;4153597;34;20185;-66
2022/07/13 12:10:51;;;;;;;24.27;4.30;;;;;;;;;;4153817;34;20508;-62
2022/07/13 12:13:18;;;;;;;9.40;4.78;;;;;;;;;;4153319;34;20099;-60
2022/07/13 12:15:44;;;;;;;8.45;3.83;;;;;;;;;;4153758;34;20103;-61
2022/07/13 12:18:12;;;;;;;10.95;3.95;;;;;;;;;;4153301;34;20545;-62
2022/07/13 12:20:38;;;;;;;7.95;4.28;;;;;;;;;;4152262;34;20107;-64
2022/07/13 12:23:06;;;;;;;8.57;4.05;;;;;;;;;;4150889;34;20107;-62
2022/07/13 12:25:35;;;;;;;7.50;3.55;;;;;;;;;;4150964;34;20540;-62
2022/07/13 12:28:04;;;;;;;8.63;4.05;;;;;;;;;;4150874;34;20123;-62
2022/07/13 12:30:31;;;;;;;11.48;4.22;;;;;;;;;;4150997;34;20197;-62
2022/07/13 12:33:09;;;;;;;8.65;4.07;;;;;;;;;;4150823;34;20107;-62
2022/07/13 12:35:36;;;;;;;9.40;4.25;;;;;;;;;;4116279;34;20107;-62
2022/07/13 12:38:09;;;;;;;11.90;5.22;;;;;;;;;;4150756;34;20146;-62
2022/07/13 12:40:39;;;;;;;9.23;4.70;;;;;;;;;;4138947;34;20534;-59
2022/07/13 12:43:25;;;;;;;14.48;5.97;;;;;;;;;;4138153;34;20106;-61
2022/07/13 12:46:01;;;;;;;10.23;5.68;;;;;;;;;;4150814;34;20215;-60
2022/07/13 12:48:29;;;;;;;9.73;4.32;;;;;;;;;;4127242;34;20106;-63
2022/07/13 12:51:06;;;;;;;11.75;4.95;;;;;;;;;;4150788;34;20577;-62
2022/07/13 12:53:56;;;;;;;9.65;4.75;;;;;;;;;;4150939;34;20220;-62
2022/07/13 12:56:24;;;;;;;9.55;4.47;;;;;;;;;;4150974;34;20118;-62
2022/07/13 12:58:53;;;;;;;14.70;4.62;;;;;;;;;;4127274;34;20123;-62
2022/07/13 13:01:30;;;;;;;7.20;3.95;;;;;;;;;;4138162;34;20095;-62
2022/07/13 13:04:01;;;;;;;9.13;4.07;;;;;;;;;;4150546;34;20119;-62
2022/07/13 13:06:27;;;;;;;11.63;4.03;;;;;;;;;;4138050;34;20123;-62
2022/07/13 13:09:06;;;;;;;6.82;3.78;;;;;;;;;;4150535;34;20126;-61
2022/07/13 13:11:33;;;;;;;4.87;2.53;;;;;;;;;;4127191;34;20150;-62
2022/07/13 13:13:59;;;;;;;8.77;4.32;;;;;;;;;;4137910;34;20095;-62
2022/07/13 13:16:26;;;;;;;7.18;4.82;;;;;;;;;;4150645;34;20468;-62
2022/07/13 13:18:51;;;;;;;6.03;3.95;;;;;;;;;;4150698;34;20095;-62
2022/07/13 13:21:20;;;;;;;7.85;5.00;;;;;;;;;;4137912;34;20135;-60
2022/07/13 13:23:46;;;;;;;10.63;5.85;;;;;;;;;;4137728;34;20445;-62
2022/07/13 13:26:12;;;;;;;12.68;6.07;;;;;;;;;;4138238;34;20104;-62
2022/07/13 13:31:23;;;;;;;23.15;6.30;;;;;;;;;;4150291;34;20103;-62
2022/07/13 13:33:49;;;;;;;10.70;4.32;;;;;;;;;;4137498;34;20134;-63
2022/07/13 13:36:15;;;;;;;10.07;5.00;;;;;;;;;;4150417;34;20090;-61
2022/07/13 13:38:41;;;;;;;20.27;5.60;;;;;;;;;;4150307;34;20099;-60
2022/07/13 13:41:08;;;;;;;7.97;4.57;;;;;;;;;;4150382;34;20200;-61
2022/07/13 13:43:34;;;;;;;10.75;4.85;;;;;;;;;;4150283;34;20211;-60
2022/07/13 13:46:00;;;;;;;8.73;4.18;;;;;;;;;;4150671;34;20187;-62
2022/07/13 13:48:26;;;;;;;10.75;4.50;;;;;;;;;;4150485;34;20122;-63
2022/07/13 13:50:52;;;;;;;8.95;5.25;;;;;;;;;;4150376;34;20273;-62
2022/07/13 13:53:19;;;;;;;5.12;3.78;;;;;;;;;;4137874;34;20538;-61
2022/07/13 13:55:45;;;;;;;8.45;4.15;;;;;;;;;;4150145;34;20101;-62
2022/07/13 13:58:11;;;;;;;11.43;5.50;;;;;;;;;;4150044;34;20198;-60
2022/07/13 14:00:37;;;;;;;8.40;6.15;;;;;;;;;;4115732;34;20456;-62
2022/07/13 14:03:04;;;;;;;12.77;5.35;;;;;;;;;;4137426;34;20456;-62
2022/07/13 14:05:30;;;;;;;8.10;5.47;;;;;;;;;;4150512;34;20106;-62
2022/07/13 14:07:56;;;;;;;11.35;5.90;;;;;;;;;;4137640;34;20195;-63
2022/07/13 14:10:23;;;;;;;10.40;4.87;;;;;;;;;;4150131;34;20531;-62
2022/07/13 14:12:50;;;;;;;12.02;4.85;;;;;;;;;;4137627;34;20114;-61
2022/07/13 14:15:16;;;;;;;11.63;5.12;;;;;;;;;;4150060;34;20104;-62
2022/07/13 14:17:42;;;;;;;8.82;5.10;;;;;;;;;;4149970;34;20437;-61
2022/07/13 14:20:08;;;;;;;6.35;4.18;;;;;;;;;;4126590;34;20103;-60
2022/07/13 14:22:35;;;;;;;13.80;5.37;;;;;;;;;;4150030;34;20091;-61
2022/07/13 14:25:01;;;;;;;6.47;3.92;;;;;;;;;;4137330;34;20467;-63
2022/07/13 14:27:27;;;;;;;10.50;4.82;;;;;;;;;;4137351;34;20142;-62
2022/07/13 14:29:54;;;;;;;7.70;5.20;;;;;;;;;;4149850;34;20529;-63
2022/07/13 14:32:20;;;;;;;12.35;4.87;;;;;;;;;;4149747;34;20138;-61
2022/07/13 14:34:47;;;;;;;10.23;4.53;;;;;;;;;;4149646;34;20110;-65
2022/07/13 14:37:16;;;;;;;6.43;4.00;;;;;;;;;;4150079;34;20170;-64
2022/07/13 14:39:43;;;;;;;7.35;4.18;;;;;;;;;;4137404;34;20232;-63
2022/07/13 14:42:10;;;;;;;18.48;4.60;;;;;;;;;;4149736;34;20207;-63
2022/07/13 14:44:37;;;;;;;8.98;5.65;;;;;;;;;;4148935;34;20455;-63
2022/07/13 14:47:04;;;;;;;15.32;5.07;;;;;;;;;;4137253;34;20126;-62
2022/07/13 14:49:31;;;;;;;10.45;4.30;;;;;;;;;;4149721;34;20110;-63
2022/07/13 14:51:58;;;;;;;10.85;4.40;;;;;;;;;;4137284;34;20102;-62
2022/07/13 14:54:24;;;;;;;8.63;4.03;;;;;;;;;;4149522;34;20130;-64
2022/07/13 14:56:51;;;;;;;13.30;5.05;;;;;;;;;;4137020;34;20119;-62
2022/07/13 14:59:18;;;;;;;5.47;3.97;;;;;;;;;;4149538;34;20103;-61
2022/07/13 15:01:44;;;;;;;9.57;4.57;;;;;;;;;;4149531;34;20107;-61
2022/07/13 15:04:11;;;;;;;6.85;4.50;;;;;;;;;;4145541;34;20214;-61
2022/07/13 15:06:37;;;;;;;11.32;4.72;;;;;;;;;;4134953;34;20549;-59
2022/07/13 15:09:03;;;;;;;13.18;5.25;;;;;;;;;;4149417;34;20115;-62
2022/07/13 15:11:29;;;;;;;7.05;4.05;;;;;;;;;;4134665;34;20103;-62
2022/07/13 15:13:55;;;;;;;6.68;4.15;;;;;;;;;;4149293;34;20095;-62
2022/07/13 15:16:21;;;;;;;6.87;4.57;;;;;;;;;;4149440;34;20193;-62
2022/07/13 15:18:47;;;;;;;6.78;4.60;;;;;;;;;;4136753;34;20120;-63
2022/07/13 15:21:14;;;;;;;6.47;3.85;;;;;;;;;;4130172;34;20207;-60
2022/07/13 15:23:39;;;;;;;7.68;4.62;;;;;;;;;;4136639;34;20460;-61
2022/07/13 15:26:05;;;;;;;6.53;3.85;;;;;;;;;;4137246;34;20119;-63